Latest Weather Observations for Parawa West

IDS60901

Issued at 8:21 pm CST Thursday 30 June 2022 (issued every 10 minutes, with the page automatically refreshed every 10 minutes)

About weather observations | Map of Adelaide area stations | Latest observations for Adelaide area | Other Formats
Station Details ID: 023875 Name: SECOND VALLEY FOREST AWS Lat: -35.57 Lon: 138.29 Height: 341.0 m
Data from the previous 72 hours. | See also: Recent months at Parawa West
Date/Time
CST
Temp
°C
App
Temp
°C
Dew
Point
°C
Rel
Hum
%
Delta-T
°C
Wind Press
QNH
hPa
Press
MSL
hPa
Rain since
9am
mm
Dir  Spd
km/h
Gust
km/h
Spd
kts
Gust
kts
30/08:00pm 10.3 6.6 9.5 95 0.4 SSE 19 26 10 14 1028.9 1029.2 1.8
30/07:30pm 10.4 6.7 9.6 95 0.4 SE 19 28 10 15 1028.7 1029.0 1.8
30/07:00pm 10.1 6.4 9.6 97 0.3 SSE 19 26 10 14 1028.2 1028.5 1.8
30/06:30pm 10.0 7.4 9.2 95 0.4 SE 13 19 7 10 1027.8 1028.1 1.8
30/06:00pm 9.7 6.6 8.8 94 0.4 SE 15 20 8 11 1027.6 1027.9 1.8
30/05:30pm 9.8 6.0 8.9 94 0.4 SE 19 26 10 14 1027.0 1027.2 1.8
30/05:00pm 10.3 6.5 9.7 96 0.3 SSE 20 30 11 16 1026.7 1026.9 1.8
30/04:30pm 10.4 6.2 9.8 96 0.3 SSE 22 32 12 17 1026.4 1026.7 1.8
30/04:00pm 10.6 6.4 9.8 95 0.4 SSE 22 30 12 16 1026.2 1026.5 1.8
30/03:30pm 10.4 6.1 9.5 94 0.5 SSE 22 30 12 16 1026.0 1026.3 1.8
30/03:00pm 10.9 6.4 10.0 94 0.5 SSE 24 35 13 19 1025.9 1026.2 1.8
30/02:30pm 11.1 6.6 9.9 92 0.6 SSE 24 33 13 18 1025.7 1026.0 1.8
30/02:00pm 11.3 6.7 9.7 90 0.8 SSE 24 35 13 19 1025.6 1025.9 1.8
30/01:30pm 11.3 6.7 9.6 89 0.9 SSE 24 32 13 17 1025.5 1025.8 1.8
30/01:00pm 11.3 7.1 9.6 89 0.9 SE 22 30 12 16 1025.6 1025.9 1.8
30/12:30pm 11.4 7.3 10.0 91 0.7 SE 22 32 12 17 1025.6 1025.9 1.8
30/12:00pm 10.9 5.9 9.7 92 0.6 SE 26 35 14 19 1025.8 1026.1 1.8
30/11:30am 11.1 6.7 10.5 96 0.3 SE 24 33 13 18 1025.9 1026.2 1.8
30/11:00am 10.6 6.5 10.1 97 0.3 SSE 22 30 12 16 1025.9 1026.2 1.8
30/10:30am 9.8 5.0 9.0 95 0.4 SSE 24 32 13 17 1025.8 1026.1 0.8
30/10:00am 10.6 5.2 9.5 93 0.6 SE 28 39 15 21 1025.2 1025.5 0.0
30/09:30am 10.4 5.3 9.3 93 0.6 SE 26 37 14 20 1024.9 1025.2 0.0
30/09:00am 9.9 3.9 8.8 93 0.5 SE 30 44 16 24 1024.2 1024.4 14.4
30/08:30am 10.1 4.2 8.9 92 0.6 SE 30 44 16 24 1023.8 1024.0 13.8
30/08:00am 9.7 3.7 8.8 94 0.4 SE 30 39 16 21 1023.2 1023.5 13.8
30/07:30am 9.7 3.7 8.6 93 0.5 SSE 30 41 16 22 1022.8 1023.1 13.8
30/07:00am 9.5 3.4 8.3 92 0.6 SSE 30 44 16 24 1022.3 1022.6 13.8
30/06:30am 9.8 3.2 8.6 92 0.6 SSE 33 44 18 24 1021.6 1021.8 13.0
30/06:00am 9.6 2.6 8.4 92 0.6 SSE 35 46 19 25 1021.0 1021.2 13.0
30/05:30am 9.9 3.2 8.3 90 0.8 SSE 33 48 18 26 1020.5 1020.7 13.0
30/05:00am 9.6 3.2 8.5 93 0.5 S 32 41 17 22 1019.8 1020.1 13.0
30/04:30am 9.4 2.7 8.2 92 0.6 S 33 46 18 25 1019.6 1019.8 13.0
30/04:00am 9.6 2.8 9.1 97 0.3 SSE 35 46 19 25 1019.3 1019.5 13.0
30/03:31am 9.3 3.0 9.0 98 0.2 S 32 52 17 28 1019.0 1019.2 13.0
30/03:30am 9.5 3.6 9.2 98 0.2 S 30 46 16 25 1019.0 1019.2 13.0
30/03:25am 9.6 4.1 9.3 98 0.2 S 28 46 15 25 1019.1 1019.3 13.0
30/03:00am 9.5 5.2 9.2 98 0.2 S 22 33 12 18 1019.0 1019.2 12.2
30/02:30am 9.1 5.6 8.8 98 0.1 SW 17 30 9 16 1019.0 1019.2 11.8
30/02:00am 9.1 6.0 8.8 98 0.1 SW 15 24 8 13 1019.0 1019.2 11.8
30/01:30am 9.1 5.6 8.6 97 0.2 WSW 17 28 9 15 1019.0 1019.2 10.4
30/01:00am 9.0 6.2 8.7 98 0.1 W 13 22 7 12 1019.0 1019.2 9.8
30/12:30am 8.8 6.0 8.4 97 0.2 W 13 19 7 10 1019.0 1019.2 8.6
30/12:00am 8.9 5.7 8.5 97 0.2 W 15 20 8 11 1019.2 1019.4 8.2
 
Date/Time
CST
Temp
°C
App
Temp
°C
Dew
Point
°C
Rel
Hum
%
Delta-T
°C
Wind Press
QNH
hPa
Press
MSL
hPa
Rain since
9am
mm
Dir  Spd
km/h
Gust
km/h
Spd
kts
Gust
kts
29/11:30pm 9.0 6.2 8.6 97 0.2 W 13 24 7 13 1019.2 1019.4 7.8
29/11:00pm 9.2 6.0 8.6 96 0.3 W 15 24 8 13 1019.2 1019.4 7.8
29/10:30pm 9.1 6.3 8.5 96 0.3 W 13 20 7 11 1019.4 1019.6 7.8
29/10:00pm 8.9 5.6 8.1 95 0.4 W 15 20 8 11 1019.3 1019.5 7.8
29/09:30pm 8.9 6.0 8.1 95 0.4 W 13 26 7 14 1019.3 1019.5 7.8
29/09:00pm 9.0 6.1 8.1 94 0.4 W 13 19 7 10 1019.4 1019.6 7.8
29/08:30pm 8.1 5.4 7.3 95 0.4 WNW 11 17 6 9 1019.4 1019.6 7.8
29/08:00pm 8.0 5.2 7.1 94 0.4 WNW 11 15 6 8 1019.5 1019.7 7.8
29/07:30pm 7.9 5.1 6.8 93 0.5 W 11 15 6 8 1019.3 1019.5 7.8
29/07:00pm 8.4 5.3 7.3 93 0.5 W 13 20 7 11 1019.2 1019.4 7.8
29/06:30pm 7.8 5.3 6.7 93 0.5 WNW 9 13 5 7 1019.1 1019.3 7.8
29/06:00pm 8.0 5.9 6.8 92 0.6 WNW 7 11 4 6 1019.0 1019.2 7.8
29/05:30pm 8.2 5.7 6.5 89 0.8 WNW 9 13 5 7 1018.8 1019.0 7.8
29/05:00pm 9.2 5.7 7.2 87 1.0 W 15 22 8 12 1018.5 1018.7 7.8
29/04:30pm 9.8 6.0 7.6 86 1.1 W 17 24 9 13 1018.3 1018.5 7.8
29/04:00pm 9.9 6.0 8.7 92 0.6 W 19 33 10 18 1018.4 1018.6 7.8
29/03:30pm 9.9 6.5 9.1 95 0.4 W 17 26 9 14 1018.4 1018.6 7.8
29/03:00pm 10.9 7.5 10.6 98 0.2 NW 19 35 10 19 1018.1 1018.3 7.6
29/02:30pm 10.3 7.1 10.1 99 0.1 WNW 17 24 9 13 1018.3 1018.5 7.6
29/02:00pm 10.2 7.8 10.1 99 0.1 NW 13 24 7 13 1018.5 1018.7 7.6
29/01:30pm 10.1 7.3 10.1 100 0.0 NW 15 26 8 14 1018.7 1018.9 7.6
29/01:00pm 9.7 6.8 9.7 100 0.0 WNW 15 22 8 12 1019.1 1019.3 7.4
29/12:30pm 9.5 5.8 9.4 99 0.1 WNW 19 32 10 17 1019.5 1019.7 6.8
29/12:00pm 10.0 6.2 9.9 99 0.1 NW 20 35 11 19 1019.9 1020.2 6.2
29/11:30am 9.9 6.7 9.8 99 0.1 NW 17 30 9 16 1020.4 1020.6 6.2
29/11:00am 9.0 7.0 8.7 98 0.1 NNW 9 19 5 10 1020.8 1021.0 6.2
29/10:30am 8.9 6.9 8.6 98 0.1 NW 9 17 5 9 1021.0 1021.2 5.6
29/10:00am 8.9 7.4 8.6 98 0.1 NW 6 15 3 8 1021.0 1021.2 4.4
29/09:30am 8.2 6.9 7.8 97 0.2 ENE 4 7 2 4 1020.9 1021.1 2.0
29/09:00am 8.6 6.9 8.2 97 0.2 NW 7 15 4 8 1020.9 1021.1 2.0
29/08:30am 8.4 6.8 8.0 97 0.2 WNW 6 15 3 8 1020.8 1021.0 0.4
29/08:00am 8.0 6.7 7.6 97 0.2 NW 4 7 2 4 1020.6 1020.8 0.2
29/07:30am 7.7 6.3 7.3 97 0.2 SW 4 6 2 3 1020.7 1020.9 0.2
29/07:00am 7.6 6.2 7.2 97 0.2 SE 4 6 2 3 1020.7 1020.9 0.2
29/06:30am 7.4 6.3 6.8 96 0.3 NE 2 9 1 5 1020.7 1020.9 0.2
29/06:00am 7.4 6.3 6.8 96 0.3 NNE 2 9 1 5 1020.8 1021.0 0.2
29/05:30am 7.7 6.6 7.1 96 0.3 NE 2 6 1 3 1020.6 1020.8 0.2
29/05:00am 8.3 6.6 7.5 95 0.4 NW 6 13 3 7 1020.5 1020.7 0.2
29/04:30am 8.9 7.1 8.1 95 0.4 NW 7 13 4 7 1020.6 1020.8 0.2
29/04:00am 8.8 6.6 8.0 95 0.4 NW 9 13 5 7 1020.8 1021.0 0.2
29/03:30am 8.6 6.9 7.7 94 0.4 NW 6 13 3 7 1021.0 1021.2 0.2
29/03:00am 8.3 6.4 7.4 94 0.4 NW 7 13 4 7 1021.3 1021.5 0.2
29/02:30am 7.8 5.9 6.6 92 0.6 NNW 6 11 3 6 1021.3 1021.5 0.2
29/02:00am 7.5 5.4 6.0 90 0.7 N 6 11 3 6 1021.6 1021.8 0.2
29/01:30am 7.3 5.6 5.8 90 0.7 ENE 4 7 2 4 1021.7 1021.9 0.2
29/01:00am 6.9 5.5 5.4 90 0.7 E 2 6 1 3 1021.8 1022.0 0.2
29/12:30am 7.2 5.9 5.8 91 0.6 NW 2 4 1 2 1022.1 1022.3 0.2
29/12:00am 7.3 5.9 5.6 89 0.8 WNW 2 6 1 3 1022.4 1022.7 0.2
 
Date/Time
CST
Temp
°C
App
Temp
°C
Dew
Point
°C
Rel
Hum
%
Delta-T
°C
Wind Press
QNH
hPa
Press
MSL
hPa
Rain since
9am
mm
Dir  Spd
km/h
Gust
km/h
Spd
kts
Gust
kts
28/11:30pm 7.6 5.5 5.7 88 0.9 WNW 6 9 3 5 1022.6 1022.9 0.2
28/11:00pm 8.1 5.9 6.1 87 0.9 NW 7 15 4 8 1022.5 1022.8 0.2
28/10:30pm 8.4 6.3 6.0 85 1.1 NW 6 11 3 6 1022.7 1023.0 0.2
28/10:00pm 8.7 6.1 6.3 85 1.1 NW 9 22 5 12 1022.8 1023.1 0.2
28/09:30pm 9.3 6.4 6.4 82 1.4 NW 11 17 6 9 1022.8 1023.1 0.2
28/09:00pm 9.7 6.8 6.6 81 1.5 NW 11 19 6 10 1023.2 1023.5 0.2
28/08:30pm 9.8 6.9 6.5 80 1.6 NW 11 26 6 14 1023.6 1023.8 0.2
28/08:00pm 9.7 6.9 6.8 82 1.4 NW 11 19 6 10 1023.7 1023.9 0.2
28/07:30pm 9.7 7.0 7.3 85 1.2 NW 11 20 6 11 1023.8 1024.0 0.2
28/07:00pm 9.3 7.1 7.7 90 0.8 NW 9 17 5 9 1023.7 1023.9 0.2
28/06:30pm 9.1 7.3 7.9 92 0.6 NW 7 13 4 7 1023.8 1024.0 0.2
28/06:00pm 8.9 7.6 7.5 91 0.7 NW 4 11 2 6 1024.1 1024.3 0.2
28/05:30pm 9.1 7.8 7.5 90 0.8 NW 4 7 2 4 1024.1 1024.3 0.2
28/05:00pm 9.8 8.5 7.6 86 1.1 NW 4 9 2 5 1024.0 1024.2 0.2
28/04:30pm 10.7 9.1 8.1 84 1.3 NW 6 13 3 7 1023.9 1024.1 0.2
28/04:00pm 10.9 9.2 8.3 84 1.3 NW 7 19 4 10 1024.1 1024.3 0.2
28/03:30pm 11.2 9.5 8.4 83 1.4 NW 7 20 4 11 1024.2 1024.4 0.2
28/03:00pm 11.6 10.0 8.8 83 1.4 NW 7 22 4 12 1024.2 1024.4 0.0
28/02:30pm 11.2 9.1 8.2 82 1.5 NW 9 24 5 13 1024.2 1024.4 0.0
28/02:00pm 11.4 9.0 8.6 83 1.4 NW 11 26 6 14 1024.5 1024.7 0.0
28/01:30pm 11.0 8.5 8.2 83 1.4 NW 11 20 6 11 1025.0 1025.3 0.0
28/01:00pm 10.9 9.1 7.8 81 1.5 WNW 7 19 4 10 1025.6 1025.9 0.0
28/12:30pm 10.6 8.7 7.7 82 1.4 WNW 7 20 4 11 1026.3 1026.6 0.0
28/12:00pm 10.3 8.5 7.0 80 1.6 NE 6 15 3 8 1026.9 1027.1 0.0
28/11:30am 10.1 7.9 6.4 78 1.7 N 7 13 4 7 1027.5 1027.8 0.0
28/11:00am 10.2 8.3 6.9 80 1.6 NNE 6 11 3 6 1027.7 1028.0 0.0
28/10:30am 10.2 8.6 6.5 78 1.8 NE 4 15 2 8 1028.1 1028.4 0.0
28/10:00am 9.5 7.8 6.0 79 1.6 NE 4 13 2 7 1028.4 1028.7 0.0
28/09:30am 8.6 6.5 5.7 82 1.3 NW 6 13 3 7 1028.5 1028.8 0.0
28/09:00am 7.7 5.3 5.3 85 1.1 NW 7 13 4 7 1028.5 1028.8 0.0
28/08:30am 7.0 5.1 5.0 87 0.9 NNW 4 6 2 3 1028.6 1028.9 0.0
28/08:00am 6.1 4.5 4.6 90 0.7 NW 2 6 1 3 1028.7 1029.0 0.0
28/07:30am 5.7 3.7 4.3 91 0.6 NW 4 6 2 3 1028.3 1028.6 0.0
28/07:00am 5.6 3.2 4.4 92 0.5 NW 6 7 3 4 1028.1 1028.4 0.0
28/06:30am 5.0 2.9 3.8 92 0.5 NW 4 6 2 3 1028.0 1028.3 0.0
28/06:00am 5.1 3.0 3.8 91 0.6 NW 4 6 2 3 1027.9 1028.2 0.0
28/05:30am 5.2 3.5 3.9 91 0.6 NW 2 4 1 2 1027.9 1028.2 0.0
28/05:00am 5.2 3.4 3.7 90 0.6 NW 2 6 1 3 1027.8 1028.1 0.0
28/04:30am 5.7 3.3 4.5 92 0.5 NW 6 7 3 4 1027.8 1028.1 0.0
28/04:00am 5.6 3.6 4.4 92 0.5 NW 4 7 2 4 1028.0 1028.3 0.0
28/03:30am 5.4 3.3 4.1 91 0.6 NW 4 6 2 3 1028.3 1028.6 0.0
28/03:00am 5.7 3.7 4.3 91 0.6 WNW 4 13 2 7 1028.8 1029.1 0.0
28/02:30am 5.2 3.9 3.9 91 0.6 CALM 0 0 0 0 1029.1 1029.4 0.0
28/02:00am 5.3 3.2 4.0 91 0.6 NW 4 6 2 3 1029.5 1029.9 0.0
28/01:30am 5.7 3.8 4.7 93 0.4 NW 4 6 2 3 1029.5 1029.9 0.0
28/01:00am 5.4 3.8 4.5 94 0.4 NNW 2 6 1 3 1029.8 1030.1 0.0
28/12:30am 6.2 4.0 5.3 94 0.4 NW 6 11 3 6 1030.1 1030.4 0.0
28/12:00am 5.6 3.7 4.7 94 0.4 NNW 4 6 2 3 1030.3 1030.6 0.0
 
Date/Time
CST
Temp
°C
App
Temp
°C
Dew
Point
°C
Rel
Hum
%
Delta-T
°C
Wind Press
QNH
hPa
Press
MSL
hPa
Rain since
9am
mm
Dir  Spd
km/h
Gust
km/h
Spd
kts
Gust
kts
27/11:30pm 5.9 4.4 5.2 95 0.3 NNW 2 4 1 2 1030.5 1030.8 0.0
27/11:00pm 5.5 4.3 4.6 94 0.4 CALM 0 4 0 2 1030.8 1031.1 0.0
27/10:30pm 5.7 4.5 4.8 94 0.4 CALM 0 4 0 2 1031.1 1031.4 0.0
27/10:00pm 5.8 4.7 4.9 94 0.4 CALM 0 0 0 0 1031.2 1031.5 0.0
27/09:30pm 6.1 4.6 5.1 93 0.4 NW 2 4 1 2 1031.6 1031.9 0.0
27/09:00pm 6.2 4.7 5.0 92 0.5 NW 2 4 1 2 1031.8 1032.1 0.0
27/08:30pm 6.5 5.4 5.0 90 0.7 CALM 0 0 0 0 1031.8 1032.1 0.0

Latest Capital City Observations: Canberra | Sydney | Melbourne | Brisbane | Adelaide | Perth | Hobart | Darwin

Other formats

Comma delimited format used in spreadsheet applications
http://www.bom.gov.au/fwo/IDS60901/IDS60901.94811.axf

JavaScript Object Notation format (JSON) in row-major order
http://www.bom.gov.au/fwo/IDS60901/IDS60901.94811.json

Data quality

Most of these data are generated automatically and are frequently updated. Quality checks on data are not normally performed. It is possible for incorrect values to appear. Refer to information at About Latest Weather Observations and please check the disclaimer before using these data.